sensor_id;sensor_type;location;lat;lon;timestamp;temperature;humidity
6363;DHT22;3214;49.932;8.494;2024-01-25T00:00:52;9.80;99.90
6363;DHT22;3214;49.932;8.494;2024-01-25T00:03:21;9.70;99.90
6363;DHT22;3214;49.932;8.494;2024-01-25T00:05:48;9.70;99.90
6363;DHT22;3214;49.932;8.494;2024-01-25T00:08:18;9.70;99.90
6363;DHT22;3214;49.932;8.494;2024-01-25T00:10:46;9.70;99.90
6363;DHT22;3214;49.932;8.494;2024-01-25T00:13:16;9.70;99.90
6363;DHT22;3214;49.932;8.494;2024-01-25T00:15:44;9.70;99.90
6363;DHT22;3214;49.932;8.494;2024-01-25T00:18:16;9.80;99.90
6363;DHT22;3214;49.932;8.494;2024-01-25T00:20:45;9.60;99.90
6363;DHT22;3214;49.932;8.494;2024-01-25T00:23:15;9.70;99.90
6363;DHT22;3214;49.932;8.494;2024-01-25T00:25:42;9.60;99.90
6363;DHT22;3214;49.932;8.494;2024-01-25T00:28:09;9.60;99.90
6363;DHT22;3214;49.932;8.494;2024-01-25T00:30:41;9.60;99.90
6363;DHT22;3214;49.932;8.494;2024-01-25T00:33:08;9.60;99.90
6363;DHT22;3214;49.932;8.494;2024-01-25T00:35:39;9.50;99.90
6363;DHT22;3214;49.932;8.494;2024-01-25T00:38:09;9.50;99.90
6363;DHT22;3214;49.932;8.494;2024-01-25T00:40:46;9.50;99.90
6363;DHT22;3214;49.932;8.494;2024-01-25T00:43:14;9.50;99.90
6363;DHT22;3214;49.932;8.494;2024-01-25T00:45:45;9.60;99.90
6363;DHT22;3214;49.932;8.494;2024-01-25T00:48:17;9.60;99.90
6363;DHT22;3214;49.932;8.494;2024-01-25T00:50:45;9.60;99.90
6363;DHT22;3214;49.932;8.494;2024-01-25T00:53:14;9.60;99.90
6363;DHT22;3214;49.932;8.494;2024-01-25T00:55:42;9.50;99.90
6363;DHT22;3214;49.932;8.494;2024-01-25T00:58:09;9.50;99.90
6363;DHT22;3214;49.932;8.494;2024-01-25T01:00:36;9.50;99.90
6363;DHT22;3214;49.932;8.494;2024-01-25T01:03:03;9.50;99.90
6363;DHT22;3214;49.932;8.494;2024-01-25T01:05:31;9.50;99.90
6363;DHT22;3214;49.932;8.494;2024-01-25T01:07:58;9.50;99.90
6363;DHT22;3214;49.932;8.494;2024-01-25T01:10:26;9.50;99.90
6363;DHT22;3214;49.932;8.494;2024-01-25T01:12:53;9.50;99.90
6363;DHT22;3214;49.932;8.494;2024-01-25T01:15:19;9.50;99.90
6363;DHT22;3214;49.932;8.494;2024-01-25T01:17:46;9.60;99.90
6363;DHT22;3214;49.932;8.494;2024-01-25T01:20:13;9.60;99.90
6363;DHT22;3214;49.932;8.494;2024-01-25T01:22:40;9.60;99.90
6363;DHT22;3214;49.932;8.494;2024-01-25T01:25:07;9.60;99.90
6363;DHT22;3214;49.932;8.494;2024-01-25T01:27:35;9.60;99.90
6363;DHT22;3214;49.932;8.494;2024-01-25T01:30:02;9.60;99.90
6363;DHT22;3214;49.932;8.494;2024-01-25T01:32:28;9.60;99.90
6363;DHT22;3214;49.932;8.494;2024-01-25T01:34:55;9.70;99.90
6363;DHT22;3214;49.932;8.494;2024-01-25T01:37:22;9.70;99.90
6363;DHT22;3214;49.932;8.494;2024-01-25T01:39:48;9.80;99.90
6363;DHT22;3214;49.932;8.494;2024-01-25T01:42:15;9.90;99.90
6363;DHT22;3214;49.932;8.494;2024-01-25T01:44:43;9.80;99.90
6363;DHT22;3214;49.932;8.494;2024-01-25T01:47:10;9.80;99.90
6363;DHT22;3214;49.932;8.494;2024-01-25T01:49:36;9.80;99.90
6363;DHT22;3214;49.932;8.494;2024-01-25T01:52:04;9.70;99.90
6363;DHT22;3214;49.932;8.494;2024-01-25T01:54:31;9.80;99.90
6363;DHT22;3214;49.932;8.494;2024-01-25T01:56:58;9.80;99.90
6363;DHT22;3214;49.932;8.494;2024-01-25T01:59:25;9.80;99.90
6363;DHT22;3214;49.932;8.494;2024-01-25T02:01:53;9.70;99.90
6363;DHT22;3214;49.932;8.494;2024-01-25T02:04:19;9.70;99.90
6363;DHT22;3214;49.932;8.494;2024-01-25T02:06:46;9.70;99.90
6363;DHT22;3214;49.932;8.494;2024-01-25T02:09:13;9.60;99.90
6363;DHT22;3214;49.932;8.494;2024-01-25T02:11:40;9.60;99.90
6363;DHT22;3214;49.932;8.494;2024-01-25T02:14:06;9.60;99.90
6363;DHT22;3214;49.932;8.494;2024-01-25T02:16:36;9.50;99.90
6363;DHT22;3214;49.932;8.494;2024-01-25T02:19:04;9.50;99.90
6363;DHT22;3214;49.932;8.494;2024-01-25T02:21:30;9.50;99.90
6363;DHT22;3214;49.932;8.494;2024-01-25T02:23:58;9.50;99.90
6363;DHT22;3214;49.932;8.494;2024-01-25T02:26:25;9.50;99.90
6363;DHT22;3214;49.932;8.494;2024-01-25T02:28:52;9.50;99.90
6363;DHT22;3214;49.932;8.494;2024-01-25T02:31:18;9.40;99.90
6363;DHT22;3214;49.932;8.494;2024-01-25T02:33:45;9.30;99.90
6363;DHT22;3214;49.932;8.494;2024-01-25T02:36:12;9.40;99.90
6363;DHT22;3214;49.932;8.494;2024-01-25T02:38:38;9.30;99.90
6363;DHT22;3214;49.932;8.494;2024-01-25T02:41:07;9.40;99.90
6363;DHT22;3214;49.932;8.494;2024-01-25T02:43:33;9.30;99.90
6363;DHT22;3214;49.932;8.494;2024-01-25T02:46:00;9.30;99.90
6363;DHT22;3214;49.932;8.494;2024-01-25T02:48:26;9.20;99.90
6363;DHT22;3214;49.932;8.494;2024-01-25T02:50:53;9.20;99.90
6363;DHT22;3214;49.932;8.494;2024-01-25T02:53:20;9.20;99.90
6363;DHT22;3214;49.932;8.494;2024-01-25T02:55:46;9.10;99.90
6363;DHT22;3214;49.932;8.494;2024-01-25T02:58:15;9.10;99.90
6363;DHT22;3214;49.932;8.494;2024-01-25T03:00:41;9.00;99.90
6363;DHT22;3214;49.932;8.494;2024-01-25T03:03:08;9.00;99.90
6363;DHT22;3214;49.932;8.494;2024-01-25T03:05:34;8.90;99.90
6363;DHT22;3214;49.932;8.494;2024-01-25T03:08:01;8.90;99.90
6363;DHT22;3214;49.932;8.494;2024-01-25T03:10:28;8.90;99.90
6363;DHT22;3214;49.932;8.494;2024-01-25T03:12:55;8.90;99.90
6363;DHT22;3214;49.932;8.494;2024-01-25T03:15:23;9.00;99.90
6363;DHT22;3214;49.932;8.494;2024-01-25T03:17:50;8.90;99.90
6363;DHT22;3214;49.932;8.494;2024-01-25T03:20:16;9.00;99.90
6363;DHT22;3214;49.932;8.494;2024-01-25T03:22:43;9.00;99.90
6363;DHT22;3214;49.932;8.494;2024-01-25T03:25:10;8.90;99.90
6363;DHT22;3214;49.932;8.494;2024-01-25T03:27:37;8.80;99.90
6363;DHT22;3214;49.932;8.494;2024-01-25T03:30:04;8.80;99.90
6363;DHT22;3214;49.932;8.494;2024-01-25T03:32:33;8.80;99.90
6363;DHT22;3214;49.932;8.494;2024-01-25T03:35:00;8.80;99.90
6363;DHT22;3214;49.932;8.494;2024-01-25T03:37:26;8.70;99.90
6363;DHT22;3214;49.932;8.494;2024-01-25T03:39:53;8.60;99.90
6363;DHT22;3214;49.932;8.494;2024-01-25T03:42:20;8.60;99.90
6363;DHT22;3214;49.932;8.494;2024-01-25T03:44:47;8.50;99.90
6363;DHT22;3214;49.932;8.494;2024-01-25T03:47:14;8.40;99.90
6363;DHT22;3214;49.932;8.494;2024-01-25T03:49:42;8.40;99.90
6363;DHT22;3214;49.932;8.494;2024-01-25T03:52:09;8.50;99.90
6363;DHT22;3214;49.932;8.494;2024-01-25T03:54:36;8.60;99.90
6363;DHT22;3214;49.932;8.494;2024-01-25T03:57:03;8.70;99.90
6363;DHT22;3214;49.932;8.494;2024-01-25T03:59:30;8.80;99.90
6363;DHT22;3214;49.932;8.494;2024-01-25T04:01:58;8.90;99.90
6363;DHT22;3214;49.932;8.494;2024-01-25T04:04:24;8.90;99.90
6363;DHT22;3214;49.932;8.494;2024-01-25T04:06:52;8.90;99.90
6363;DHT22;3214;49.932;8.494;2024-01-25T04:09:19;9.00;99.90
6363;DHT22;3214;49.932;8.494;2024-01-25T04:11:46;9.10;99.90
6363;DHT22;3214;49.932;8.494;2024-01-25T04:14:12;9.10;99.90
6363;DHT22;3214;49.932;8.494;2024-01-25T04:16:57;9.20;99.90
6363;DHT22;3214;49.932;8.494;2024-01-25T04:19:24;9.30;99.90
6363;DHT22;3214;49.932;8.494;2024-01-25T04:21:54;9.20;99.90
6363;DHT22;3214;49.932;8.494;2024-01-25T04:24:21;9.20;99.90
6363;DHT22;3214;49.932;8.494;2024-01-25T04:26:52;9.20;99.90
6363;DHT22;3214;49.932;8.494;2024-01-25T04:29:19;9.30;99.90
6363;DHT22;3214;49.932;8.494;2024-01-25T04:31:46;9.20;99.90
6363;DHT22;3214;49.932;8.494;2024-01-25T04:34:20;9.30;99.90
6363;DHT22;3214;49.932;8.494;2024-01-25T04:36:47;9.20;99.90
6363;DHT22;3214;49.932;8.494;2024-01-25T04:39:15;9.20;99.90
6363;DHT22;3214;49.932;8.494;2024-01-25T04:41:42;9.20;99.90
6363;DHT22;3214;49.932;8.494;2024-01-25T04:44:09;9.20;99.90
6363;DHT22;3214;49.932;8.494;2024-01-25T04:46:36;9.30;99.90
6363;DHT22;3214;49.932;8.494;2024-01-25T04:49:05;9.20;99.90
6363;DHT22;3214;49.932;8.494;2024-01-25T04:51:37;9.30;99.90
6363;DHT22;3214;49.932;8.494;2024-01-25T04:54:06;9.20;99.90
6363;DHT22;3214;49.932;8.494;2024-01-25T04:56:43;9.10;99.90
6363;DHT22;3214;49.932;8.494;2024-01-25T04:59:10;9.10;99.90
6363;DHT22;3214;49.932;8.494;2024-01-25T05:01:37;9.00;99.90
6363;DHT22;3214;49.932;8.494;2024-01-25T05:04:07;8.80;99.90
6363;DHT22;3214;49.932;8.494;2024-01-25T05:06:35;9.00;99.90
6363;DHT22;3214;49.932;8.494;2024-01-25T05:09:06;8.90;99.90
6363;DHT22;3214;49.932;8.494;2024-01-25T05:11:41;8.90;99.90
6363;DHT22;3214;49.932;8.494;2024-01-25T05:14:12;8.90;99.90
6363;DHT22;3214;49.932;8.494;2024-01-25T05:16:43;8.80;99.90
6363;DHT22;3214;49.932;8.494;2024-01-25T05:19:10;8.70;99.90
6363;DHT22;3214;49.932;8.494;2024-01-25T05:21:37;8.80;99.90
6363;DHT22;3214;49.932;8.494;2024-01-25T05:24:05;8.70;99.90
6363;DHT22;3214;49.932;8.494;2024-01-25T05:26:33;8.70;99.90
6363;DHT22;3214;49.932;8.494;2024-01-25T05:29:01;8.70;99.90
6363;DHT22;3214;49.932;8.494;2024-01-25T05:31:29;8.60;99.90
6363;DHT22;3214;49.932;8.494;2024-01-25T05:33:56;8.60;99.90
6363;DHT22;3214;49.932;8.494;2024-01-25T05:36:23;8.60;99.90
6363;DHT22;3214;49.932;8.494;2024-01-25T05:38:50;8.60;99.90
6363;DHT22;3214;49.932;8.494;2024-01-25T05:41:17;8.70;99.90
6363;DHT22;3214;49.932;8.494;2024-01-25T05:43:44;8.60;99.90
6363;DHT22;3214;49.932;8.494;2024-01-25T05:46:12;8.70;99.90
6363;DHT22;3214;49.932;8.494;2024-01-25T05:48:39;8.60;99.90
6363;DHT22;3214;49.932;8.494;2024-01-25T05:51:05;8.70;99.90
6363;DHT22;3214;49.932;8.494;2024-01-25T05:53:32;8.60;99.90
6363;DHT22;3214;49.932;8.494;2024-01-25T05:55:59;8.60;99.90
6363;DHT22;3214;49.932;8.494;2024-01-25T05:58:26;8.50;99.90
6363;DHT22;3214;49.932;8.494;2024-01-25T06:00:52;8.50;99.90
6363;DHT22;3214;49.932;8.494;2024-01-25T06:03:20;8.50;99.90
6363;DHT22;3214;49.932;8.494;2024-01-25T06:05:47;8.50;99.90
6363;DHT22;3214;49.932;8.494;2024-01-25T06:08:14;8.50;99.90
6363;DHT22;3214;49.932;8.494;2024-01-25T06:10:40;8.40;99.90
6363;DHT22;3214;49.932;8.494;2024-01-25T06:13:08;8.40;99.90
6363;DHT22;3214;49.932;8.494;2024-01-25T06:15:35;8.40;99.90
6363;DHT22;3214;49.932;8.494;2024-01-25T06:18:01;8.40;99.90
6363;DHT22;3214;49.932;8.494;2024-01-25T06:20:29;8.40;99.90
6363;DHT22;3214;49.932;8.494;2024-01-25T06:22:56;8.40;99.90
6363;DHT22;3214;49.932;8.494;2024-01-25T06:25:23;8.40;99.90
6363;DHT22;3214;49.932;8.494;2024-01-25T06:27:49;8.40;99.90
6363;DHT22;3214;49.932;8.494;2024-01-25T06:30:16;8.30;99.90
6363;DHT22;3214;49.932;8.494;2024-01-25T06:32:45;8.40;99.90
6363;DHT22;3214;49.932;8.494;2024-01-25T06:35:12;8.30;99.90
6363;DHT22;3214;49.932;8.494;2024-01-25T06:37:40;8.20;99.90
6363;DHT22;3214;49.932;8.494;2024-01-25T06:40:07;8.10;99.90
6363;DHT22;3214;49.932;8.494;2024-01-25T06:42:34;8.10;99.90
6363;DHT22;3214;49.932;8.494;2024-01-25T06:45:00;8.20;99.90
6363;DHT22;3214;49.932;8.494;2024-01-25T06:47:27;8.20;99.90
6363;DHT22;3214;49.932;8.494;2024-01-25T06:49:54;8.20;99.90
6363;DHT22;3214;49.932;8.494;2024-01-25T06:52:20;8.20;99.90
6363;DHT22;3214;49.932;8.494;2024-01-25T06:54:48;8.10;99.90
6363;DHT22;3214;49.932;8.494;2024-01-25T06:57:15;8.10;99.90
6363;DHT22;3214;49.932;8.494;2024-01-25T06:59:41;8.10;99.90
6363;DHT22;3214;49.932;8.494;2024-01-25T07:02:07;8.10;99.90
6363;DHT22;3214;49.932;8.494;2024-01-25T07:04:34;8.10;99.90
6363;DHT22;3214;49.932;8.494;2024-01-25T07:07:03;8.00;99.90
6363;DHT22;3214;49.932;8.494;2024-01-25T07:09:30;8.00;99.90
6363;DHT22;3214;49.932;8.494;2024-01-25T07:11:58;7.90;99.90
6363;DHT22;3214;49.932;8.494;2024-01-25T07:14:24;7.80;99.90
6363;DHT22;3214;49.932;8.494;2024-01-25T07:16:51;7.80;99.90
6363;DHT22;3214;49.932;8.494;2024-01-25T07:19:18;7.90;99.90
6363;DHT22;3214;49.932;8.494;2024-01-25T07:21:44;7.90;99.90
6363;DHT22;3214;49.932;8.494;2024-01-25T07:24:12;8.00;99.90
6363;DHT22;3214;49.932;8.494;2024-01-25T07:26:38;8.10;99.90
6363;DHT22;3214;49.932;8.494;2024-01-25T07:29:06;7.90;99.90
6363;DHT22;3214;49.932;8.494;2024-01-25T07:31:33;7.90;99.90
6363;DHT22;3214;49.932;8.494;2024-01-25T07:34:00;7.80;99.90
6363;DHT22;3214;49.932;8.494;2024-01-25T07:36:26;7.80;99.90
6363;DHT22;3214;49.932;8.494;2024-01-25T07:38:53;7.80;99.90
6363;DHT22;3214;49.932;8.494;2024-01-25T07:41:19;7.80;99.90
6363;DHT22;3214;49.932;8.494;2024-01-25T07:43:46;7.90;99.90
6363;DHT22;3214;49.932;8.494;2024-01-25T07:46:14;8.00;99.90
6363;DHT22;3214;49.932;8.494;2024-01-25T07:48:41;8.00;99.90
6363;DHT22;3214;49.932;8.494;2024-01-25T07:51:11;8.00;99.90
6363;DHT22;3214;49.932;8.494;2024-01-25T07:53:38;8.00;99.90
6363;DHT22;3214;49.932;8.494;2024-01-25T07:56:09;7.80;99.90
6363;DHT22;3214;49.932;8.494;2024-01-25T07:58:36;7.80;99.90
6363;DHT22;3214;49.932;8.494;2024-01-25T08:01:04;7.80;99.90
6363;DHT22;3214;49.932;8.494;2024-01-25T08:03:33;7.80;99.90
6363;DHT22;3214;49.932;8.494;2024-01-25T08:06:00;7.90;99.90
6363;DHT22;3214;49.932;8.494;2024-01-25T08:08:26;7.90;99.90
6363;DHT22;3214;49.932;8.494;2024-01-25T08:10:53;7.90;99.90
6363;DHT22;3214;49.932;8.494;2024-01-25T08:13:20;7.80;99.90
6363;DHT22;3214;49.932;8.494;2024-01-25T08:15:46;7.70;99.90
6363;DHT22;3214;49.932;8.494;2024-01-25T08:18:13;7.80;99.90
6363;DHT22;3214;49.932;8.494;2024-01-25T08:20:41;7.80;99.90
6363;DHT22;3214;49.932;8.494;2024-01-25T08:23:08;7.80;99.90
6363;DHT22;3214;49.932;8.494;2024-01-25T08:25:34;7.80;99.90
6363;DHT22;3214;49.932;8.494;2024-01-25T08:28:01;7.80;99.90
6363;DHT22;3214;49.932;8.494;2024-01-25T08:30:28;7.80;99.90
6363;DHT22;3214;49.932;8.494;2024-01-25T08:32:55;8.00;99.90
6363;DHT22;3214;49.932;8.494;2024-01-25T08:35:22;8.10;99.90
6363;DHT22;3214;49.932;8.494;2024-01-25T08:37:50;8.20;99.90
6363;DHT22;3214;49.932;8.494;2024-01-25T08:40:20;8.20;99.90
6363;DHT22;3214;49.932;8.494;2024-01-25T08:43:00;8.30;99.90
6363;DHT22;3214;49.932;8.494;2024-01-25T08:45:26;8.40;99.90
6363;DHT22;3214;49.932;8.494;2024-01-25T08:47:53;8.40;99.90
6363;DHT22;3214;49.932;8.494;2024-01-25T08:50:21;8.50;99.90
6363;DHT22;3214;49.932;8.494;2024-01-25T08:52:48;8.60;99.90
6363;DHT22;3214;49.932;8.494;2024-01-25T08:55:16;8.60;99.90
6363;DHT22;3214;49.932;8.494;2024-01-25T08:57:43;8.70;99.90
6363;DHT22;3214;49.932;8.494;2024-01-25T09:00:10;8.70;99.90
6363;DHT22;3214;49.932;8.494;2024-01-25T09:02:37;8.60;99.90
6363;DHT22;3214;49.932;8.494;2024-01-25T09:05:04;8.70;99.90
6363;DHT22;3214;49.932;8.494;2024-01-25T09:07:31;8.70;99.90
6363;DHT22;3214;49.932;8.494;2024-01-25T09:09:58;8.80;99.90
6363;DHT22;3214;49.932;8.494;2024-01-25T09:12:26;9.00;99.90
6363;DHT22;3214;49.932;8.494;2024-01-25T09:14:53;9.10;99.90
6363;DHT22;3214;49.932;8.494;2024-01-25T09:17:19;9.20;99.90
6363;DHT22;3214;49.932;8.494;2024-01-25T09:19:48;9.30;99.90
6363;DHT22;3214;49.932;8.494;2024-01-25T09:22:15;9.40;99.90
6363;DHT22;3214;49.932;8.494;2024-01-25T09:24:42;9.50;99.90
6363;DHT22;3214;49.932;8.494;2024-01-25T09:27:22;9.50;99.90
6363;DHT22;3214;49.932;8.494;2024-01-25T09:29:54;9.60;99.90
6363;DHT22;3214;49.932;8.494;2024-01-25T09:32:23;9.70;99.90
6363;DHT22;3214;49.932;8.494;2024-01-25T09:34:49;9.70;99.90
6363;DHT22;3214;49.932;8.494;2024-01-25T09:37:16;9.80;99.90
6363;DHT22;3214;49.932;8.494;2024-01-25T09:39:45;9.70;99.90
6363;DHT22;3214;49.932;8.494;2024-01-25T09:42:12;9.60;99.90
6363;DHT22;3214;49.932;8.494;2024-01-25T09:44:40;9.70;99.90
6363;DHT22;3214;49.932;8.494;2024-01-25T09:47:11;9.60;99.90
6363;DHT22;3214;49.932;8.494;2024-01-25T09:49:39;9.60;99.90
6363;DHT22;3214;49.932;8.494;2024-01-25T09:52:06;9.60;99.90
6363;DHT22;3214;49.932;8.494;2024-01-25T09:54:38;9.70;99.90
6363;DHT22;3214;49.932;8.494;2024-01-25T09:57:15;9.80;99.90
6363;DHT22;3214;49.932;8.494;2024-01-25T09:59:44;10.00;99.90
6363;DHT22;3214;49.932;8.494;2024-01-25T10:02:49;10.00;99.90
6363;DHT22;3214;49.932;8.494;2024-01-25T10:05:19;10.00;99.90
6363;DHT22;3214;49.932;8.494;2024-01-25T10:07:54;10.10;99.90
6363;DHT22;3214;49.932;8.494;2024-01-25T10:10:34;10.10;99.90
6363;DHT22;3214;49.932;8.494;2024-01-25T10:13:14;10.10;99.90
6363;DHT22;3214;49.932;8.494;2024-01-25T10:15:49;10.20;99.90
6363;DHT22;3214;49.932;8.494;2024-01-25T10:18:20;10.30;99.90
6363;DHT22;3214;49.932;8.494;2024-01-25T10:21:11;10.30;99.90
6363;DHT22;3214;49.932;8.494;2024-01-25T10:23:45;10.10;99.90
6363;DHT22;3214;49.932;8.494;2024-01-25T10:26:26;10.20;99.90
6363;DHT22;3214;49.932;8.494;2024-01-25T10:28:56;10.20;99.90
6363;DHT22;3214;49.932;8.494;2024-01-25T10:31:24;10.40;99.90
6363;DHT22;3214;49.932;8.494;2024-01-25T10:33:53;10.30;99.90
6363;DHT22;3214;49.932;8.494;2024-01-25T10:36:38;10.40;99.90
6363;DHT22;3214;49.932;8.494;2024-01-25T10:39:16;10.60;99.90
6363;DHT22;3214;49.932;8.494;2024-01-25T10:41:47;10.80;99.90
6363;DHT22;3214;49.932;8.494;2024-01-25T10:44:28;10.80;99.90
6363;DHT22;3214;49.932;8.494;2024-01-25T10:47:03;10.80;99.90
6363;DHT22;3214;49.932;8.494;2024-01-25T10:49:36;10.90;99.90
6363;DHT22;3214;49.932;8.494;2024-01-25T10:52:07;10.80;99.90
6363;DHT22;3214;49.932;8.494;2024-01-25T10:54:55;10.70;99.90
6363;DHT22;3214;49.932;8.494;2024-01-25T10:57:35;10.70;99.90
6363;DHT22;3214;49.932;8.494;2024-01-25T11:00:16;10.70;99.90
6363;DHT22;3214;49.932;8.494;2024-01-25T11:02:44;10.70;99.90
6363;DHT22;3214;49.932;8.494;2024-01-25T11:05:19;10.80;99.90
6363;DHT22;3214;49.932;8.494;2024-01-25T11:07:54;10.90;99.90
6363;DHT22;3214;49.932;8.494;2024-01-25T11:10:23;11.10;99.90
6363;DHT22;3214;49.932;8.494;2024-01-25T11:12:57;11.20;99.90
6363;DHT22;3214;49.932;8.494;2024-01-25T11:15:30;11.20;99.90
6363;DHT22;3214;49.932;8.494;2024-01-25T11:18:08;11.30;99.90
6363;DHT22;3214;49.932;8.494;2024-01-25T11:21:10;11.20;99.90
6363;DHT22;3214;49.932;8.494;2024-01-25T11:23:43;11.20;99.90
6363;DHT22;3214;49.932;8.494;2024-01-25T11:26:13;11.10;99.90
6363;DHT22;3214;49.932;8.494;2024-01-25T11:28:53;11.10;99.90
6363;DHT22;3214;49.932;8.494;2024-01-25T11:31:28;11.00;99.90
6363;DHT22;3214;49.932;8.494;2024-01-25T11:34:02;11.10;99.90
6363;DHT22;3214;49.932;8.494;2024-01-25T11:36:30;11.00;99.90
6363;DHT22;3214;49.932;8.494;2024-01-25T11:39:03;11.00;99.90
6363;DHT22;3214;49.932;8.494;2024-01-25T11:41:40;11.20;99.90
6363;DHT22;3214;49.932;8.494;2024-01-25T11:44:12;11.20;99.90
6363;DHT22;3214;49.932;8.494;2024-01-25T11:46:44;11.40;99.90
6363;DHT22;3214;49.932;8.494;2024-01-25T11:49:18;11.60;99.90
6363;DHT22;3214;49.932;8.494;2024-01-25T11:51:52;11.70;99.90
6363;DHT22;3214;49.932;8.494;2024-01-25T11:54:34;11.90;99.90
6363;DHT22;3214;49.932;8.494;2024-01-25T11:57:04;11.90;99.90
6363;DHT22;3214;49.932;8.494;2024-01-25T11:59:37;11.80;99.90
6363;DHT22;3214;49.932;8.494;2024-01-25T12:02:27;11.80;99.90
6363;DHT22;3214;49.932;8.494;2024-01-25T12:05:05;11.70;99.90
6363;DHT22;3214;49.932;8.494;2024-01-25T12:07:34;11.80;99.90
6363;DHT22;3214;49.932;8.494;2024-01-25T12:10:03;11.80;99.90
6363;DHT22;3214;49.932;8.494;2024-01-25T12:12:30;11.80;99.90
6363;DHT22;3214;49.932;8.494;2024-01-25T12:14:58;11.80;99.90
6363;DHT22;3214;49.932;8.494;2024-01-25T12:17:29;11.80;99.90
6363;DHT22;3214;49.932;8.494;2024-01-25T12:20:02;11.90;99.90
6363;DHT22;3214;49.932;8.494;2024-01-25T12:22:40;12.00;99.90
6363;DHT22;3214;49.932;8.494;2024-01-25T12:25:11;12.10;99.90
6363;DHT22;3214;49.932;8.494;2024-01-25T12:27:54;12.30;99.90
6363;DHT22;3214;49.932;8.494;2024-01-25T12:30:23;12.40;99.90
6363;DHT22;3214;49.932;8.494;2024-01-25T12:33:10;12.40;99.90
6363;DHT22;3214;49.932;8.494;2024-01-25T12:35:41;12.40;99.90
6363;DHT22;3214;49.932;8.494;2024-01-25T12:38:15;12.30;99.90
6363;DHT22;3214;49.932;8.494;2024-01-25T12:40:43;12.30;99.90
6363;DHT22;3214;49.932;8.494;2024-01-25T12:43:09;12.20;99.90
6363;DHT22;3214;49.932;8.494;2024-01-25T12:45:36;12.20;99.90
6363;DHT22;3214;49.932;8.494;2024-01-25T12:48:04;12.30;99.90
6363;DHT22;3214;49.932;8.494;2024-01-25T12:50:32;12.70;99.90
6363;DHT22;3214;49.932;8.494;2024-01-25T12:52:59;12.80;99.90
6363;DHT22;3214;49.932;8.494;2024-01-25T12:55:28;13.00;99.90
6363;DHT22;3214;49.932;8.494;2024-01-25T12:57:55;13.10;99.90
6363;DHT22;3214;49.932;8.494;2024-01-25T13:00:22;13.10;99.90
6363;DHT22;3214;49.932;8.494;2024-01-25T13:02:49;13.10;99.90
6363;DHT22;3214;49.932;8.494;2024-01-25T13:05:17;13.00;99.90
6363;DHT22;3214;49.932;8.494;2024-01-25T13:07:43;12.80;99.90
6363;DHT22;3214;49.932;8.494;2024-01-25T13:10:10;12.80;99.90
6363;DHT22;3214;49.932;8.494;2024-01-25T13:12:39;12.80;99.90
6363;DHT22;3214;49.932;8.494;2024-01-25T13:15:06;12.90;99.90
6363;DHT22;3214;49.932;8.494;2024-01-25T13:17:34;12.70;99.90
6363;DHT22;3214;49.932;8.494;2024-01-25T13:20:01;12.70;99.90
6363;DHT22;3214;49.932;8.494;2024-01-25T13:22:31;12.80;99.90
6363;DHT22;3214;49.932;8.494;2024-01-25T13:24:58;12.80;99.90
6363;DHT22;3214;49.932;8.494;2024-01-25T13:27:25;12.80;99.90
6363;DHT22;3214;49.932;8.494;2024-01-25T13:29:54;12.80;99.90
6363;DHT22;3214;49.932;8.494;2024-01-25T13:32:20;12.70;99.90
6363;DHT22;3214;49.932;8.494;2024-01-25T13:34:47;12.70;99.90
6363;DHT22;3214;49.932;8.494;2024-01-25T13:37:14;12.80;99.90
6363;DHT22;3214;49.932;8.494;2024-01-25T13:39:40;12.80;99.90
6363;DHT22;3214;49.932;8.494;2024-01-25T13:42:07;12.90;99.90
6363;DHT22;3214;49.932;8.494;2024-01-25T13:44:34;13.00;99.90
6363;DHT22;3214;49.932;8.494;2024-01-25T13:47:02;13.00;99.90
6363;DHT22;3214;49.932;8.494;2024-01-25T13:49:29;12.90;99.90
6363;DHT22;3214;49.932;8.494;2024-01-25T13:51:55;12.90;99.90
6363;DHT22;3214;49.932;8.494;2024-01-25T13:54:22;12.80;99.90
6363;DHT22;3214;49.932;8.494;2024-01-25T13:56:49;12.70;99.90
6363;DHT22;3214;49.932;8.494;2024-01-25T13:59:15;12.70;99.90
6363;DHT22;3214;49.932;8.494;2024-01-25T14:01:42;12.60;99.90
6363;DHT22;3214;49.932;8.494;2024-01-25T14:04:10;12.60;99.90
6363;DHT22;3214;49.932;8.494;2024-01-25T14:06:37;12.60;99.90
6363;DHT22;3214;49.932;8.494;2024-01-25T14:09:04;12.60;99.90
6363;DHT22;3214;49.932;8.494;2024-01-25T14:11:31;12.60;99.90
6363;DHT22;3214;49.932;8.494;2024-01-25T14:13:58;12.60;99.90
6363;DHT22;3214;49.932;8.494;2024-01-25T14:16:24;12.60;99.90
6363;DHT22;3214;49.932;8.494;2024-01-25T14:18:51;12.70;99.90
6363;DHT22;3214;49.932;8.494;2024-01-25T14:21:19;12.60;99.90
6363;DHT22;3214;49.932;8.494;2024-01-25T14:23:46;12.60;99.90
6363;DHT22;3214;49.932;8.494;2024-01-25T14:26:13;12.60;99.90
6363;DHT22;3214;49.932;8.494;2024-01-25T14:28:39;12.60;99.90
6363;DHT22;3214;49.932;8.494;2024-01-25T14:31:06;12.50;99.90
6363;DHT22;3214;49.932;8.494;2024-01-25T14:33:33;12.50;99.90
6363;DHT22;3214;49.932;8.494;2024-01-25T14:35:59;12.60;99.90
6363;DHT22;3214;49.932;8.494;2024-01-25T14:38:29;12.50;99.90
6363;DHT22;3214;49.932;8.494;2024-01-25T14:40:56;12.50;99.90
6363;DHT22;3214;49.932;8.494;2024-01-25T14:43:22;12.40;99.90
6363;DHT22;3214;49.932;8.494;2024-01-25T14:45:49;12.30;99.90
6363;DHT22;3214;49.932;8.494;2024-01-25T14:48:16;12.20;99.90
6363;DHT22;3214;49.932;8.494;2024-01-25T14:50:43;12.10;99.90
6363;DHT22;3214;49.932;8.494;2024-01-25T14:53:13;12.10;99.90
6363;DHT22;3214;49.932;8.494;2024-01-25T14:55:42;12.00;99.90
6363;DHT22;3214;49.932;8.494;2024-01-25T14:58:09;11.90;99.90
6363;DHT22;3214;49.932;8.494;2024-01-25T15:00:36;11.90;99.90
6363;DHT22;3214;49.932;8.494;2024-01-25T15:03:03;11.80;99.90
6363;DHT22;3214;49.932;8.494;2024-01-25T15:05:30;11.70;99.90
6363;DHT22;3214;49.932;8.494;2024-01-25T15:07:56;11.70;99.90
6363;DHT22;3214;49.932;8.494;2024-01-25T15:10:24;11.70;99.90
6363;DHT22;3214;49.932;8.494;2024-01-25T15:12:52;11.60;99.90
6363;DHT22;3214;49.932;8.494;2024-01-25T15:15:20;11.60;99.90
6363;DHT22;3214;49.932;8.494;2024-01-25T15:17:47;11.60;99.90
6363;DHT22;3214;49.932;8.494;2024-01-25T15:20:14;11.50;99.90
6363;DHT22;3214;49.932;8.494;2024-01-25T15:22:44;11.60;99.90
6363;DHT22;3214;49.932;8.494;2024-01-25T15:25:14;11.60;99.90
6363;DHT22;3214;49.932;8.494;2024-01-25T15:27:41;11.50;99.90
6363;DHT22;3214;49.932;8.494;2024-01-25T15:30:11;11.50;99.90
6363;DHT22;3214;49.932;8.494;2024-01-25T15:32:38;11.50;99.90
6363;DHT22;3214;49.932;8.494;2024-01-25T15:35:07;11.50;99.90
6363;DHT22;3214;49.932;8.494;2024-01-25T15:37:34;11.50;99.90
6363;DHT22;3214;49.932;8.494;2024-01-25T15:40:03;11.40;99.90
6363;DHT22;3214;49.932;8.494;2024-01-25T15:42:36;11.40;99.90
6363;DHT22;3214;49.932;8.494;2024-01-25T15:45:04;11.40;99.90
6363;DHT22;3214;49.932;8.494;2024-01-25T15:47:34;11.30;99.90
6363;DHT22;3214;49.932;8.494;2024-01-25T15:50:01;11.30;99.90
6363;DHT22;3214;49.932;8.494;2024-01-25T15:52:30;11.20;99.90
6363;DHT22;3214;49.932;8.494;2024-01-25T15:54:57;11.20;99.90
6363;DHT22;3214;49.932;8.494;2024-01-25T15:57:24;11.20;99.90
6363;DHT22;3214;49.932;8.494;2024-01-25T15:59:50;11.10;99.90
6363;DHT22;3214;49.932;8.494;2024-01-25T16:02:17;11.20;99.90
6363;DHT22;3214;49.932;8.494;2024-01-25T16:04:45;11.10;99.90
6363;DHT22;3214;49.932;8.494;2024-01-25T16:07:12;11.10;99.90
6363;DHT22;3214;49.932;8.494;2024-01-25T16:09:38;10.90;99.90
6363;DHT22;3214;49.932;8.494;2024-01-25T16:12:07;10.80;99.90
6363;DHT22;3214;49.932;8.494;2024-01-25T16:14:37;10.80;99.90
6363;DHT22;3214;49.932;8.494;2024-01-25T16:17:06;10.80;99.90
6363;DHT22;3214;49.932;8.494;2024-01-25T16:19:35;10.70;99.90
6363;DHT22;3214;49.932;8.494;2024-01-25T16:22:03;10.60;99.90